sensor_id;sensor_type;location;lat;lon;timestamp;temperature;humidity
11256;HTU21D;5685;52.384;13.420;2022-08-01T00:01:29;25.20;99.90
11256;HTU21D;5685;52.384;13.420;2022-08-01T00:04:32;25.20;99.90
11256;HTU21D;5685;52.384;13.420;2022-08-01T00:07:34;25.20;99.90
11256;HTU21D;5685;52.384;13.420;2022-08-01T00:10:38;25.30;99.90
11256;HTU21D;5685;52.384;13.420;2022-08-01T00:13:40;25.20;99.90
11256;HTU21D;5685;52.384;13.420;2022-08-01T00:16:42;25.20;99.90
11256;HTU21D;5685;52.384;13.420;2022-08-01T00:19:44;25.20;99.90
11256;HTU21D;5685;52.384;13.420;2022-08-01T00:22:46;25.20;99.90
11256;HTU21D;5685;52.384;13.420;2022-08-01T00:25:49;25.20;99.90
11256;HTU21D;5685;52.384;13.420;2022-08-01T00:28:51;25.10;99.90
11256;HTU21D;5685;52.384;13.420;2022-08-01T00:31:53;25.10;99.90
11256;HTU21D;5685;52.384;13.420;2022-08-01T00:34:55;25.10;99.90
11256;HTU21D;5685;52.384;13.420;2022-08-01T00:37:57;25.10;99.90
11256;HTU21D;5685;52.384;13.420;2022-08-01T00:41:01;25.00;99.90
11256;HTU21D;5685;52.384;13.420;2022-08-01T00:44:04;25.00;99.90
11256;HTU21D;5685;52.384;13.420;2022-08-01T00:47:07;25.00;99.90
11256;HTU21D;5685;52.384;13.420;2022-08-01T00:50:09;25.00;99.90
11256;HTU21D;5685;52.384;13.420;2022-08-01T00:53:12;25.00;99.90
11256;HTU21D;5685;52.384;13.420;2022-08-01T00:56:16;25.00;99.90
11256;HTU21D;5685;52.384;13.420;2022-08-01T00:59:21;25.00;99.90
11256;HTU21D;5685;52.384;13.420;2022-08-01T01:02:23;25.00;99.90
11256;HTU21D;5685;52.384;13.420;2022-08-01T01:05:26;25.00;99.90
11256;HTU21D;5685;52.384;13.420;2022-08-01T01:08:35;25.00;99.90
11256;HTU21D;5685;52.384;13.420;2022-08-01T01:12:00;25.00;99.90
11256;HTU21D;5685;52.384;13.420;2022-08-01T01:15:17;24.90;99.90
11256;HTU21D;5685;52.384;13.420;2022-08-01T01:18:22;24.90;99.90
11256;HTU21D;5685;52.384;13.420;2022-08-01T01:21:39;24.90;99.90
11256;HTU21D;5685;52.384;13.420;2022-08-01T01:25:07;24.90;99.90
11256;HTU21D;5685;52.384;13.420;2022-08-01T01:28:21;24.90;99.90
11256;HTU21D;5685;52.384;13.420;2022-08-01T01:31:33;24.90;99.90
11256;HTU21D;5685;52.384;13.420;2022-08-01T01:34:43;24.90;99.90
11256;HTU21D;5685;52.384;13.420;2022-08-01T01:37:48;24.90;99.90
11256;HTU21D;5685;52.384;13.420;2022-08-01T01:40:53;24.90;99.90
11256;HTU21D;5685;52.384;13.420;2022-08-01T01:43:58;24.90;99.90
11256;HTU21D;5685;52.384;13.420;2022-08-01T01:47:03;24.90;99.90
11256;HTU21D;5685;52.384;13.420;2022-08-01T01:50:08;24.90;99.90
11256;HTU21D;5685;52.384;13.420;2022-08-01T01:53:12;25.00;99.90
11256;HTU21D;5685;52.384;13.420;2022-08-01T01:56:16;25.00;99.90
11256;HTU21D;5685;52.384;13.420;2022-08-01T01:59:24;24.90;99.90
11256;HTU21D;5685;52.384;13.420;2022-08-01T02:02:30;24.90;99.90
11256;HTU21D;5685;52.384;13.420;2022-08-01T02:05:33;24.90;99.90
11256;HTU21D;5685;52.384;13.420;2022-08-01T02:08:36;24.80;99.90
11256;HTU21D;5685;52.384;13.420;2022-08-01T02:11:40;24.80;99.90
11256;HTU21D;5685;52.384;13.420;2022-08-01T02:14:43;24.80;99.90
11256;HTU21D;5685;52.384;13.420;2022-08-01T02:17:49;24.70;99.90
11256;HTU21D;5685;52.384;13.420;2022-08-01T02:20:54;24.80;99.90
11256;HTU21D;5685;52.384;13.420;2022-08-01T02:24:03;24.70;99.90
11256;HTU21D;5685;52.384;13.420;2022-08-01T02:27:14;24.70;99.90
11256;HTU21D;5685;52.384;13.420;2022-08-01T02:30:19;24.70;99.90
11256;HTU21D;5685;52.384;13.420;2022-08-01T02:33:26;24.70;99.90
11256;HTU21D;5685;52.384;13.420;2022-08-01T02:36:34;24.70;99.90
11256;HTU21D;5685;52.384;13.420;2022-08-01T02:39:38;24.60;99.90
11256;HTU21D;5685;52.384;13.420;2022-08-01T02:42:44;24.60;99.90
11256;HTU21D;5685;52.384;13.420;2022-08-01T02:45:51;24.60;99.90
11256;HTU21D;5685;52.384;13.420;2022-08-01T02:48:58;24.60;99.90
11256;HTU21D;5685;52.384;13.420;2022-08-01T02:52:06;24.60;99.90
11256;HTU21D;5685;52.384;13.420;2022-08-01T02:55:11;24.50;99.90
11256;HTU21D;5685;52.384;13.420;2022-08-01T02:58:16;24.50;99.90
11256;HTU21D;5685;52.384;13.420;2022-08-01T03:01:22;24.50;99.90
11256;HTU21D;5685;52.384;13.420;2022-08-01T03:04:26;24.40;99.90
11256;HTU21D;5685;52.384;13.420;2022-08-01T03:07:30;24.40;99.90
11256;HTU21D;5685;52.384;13.420;2022-08-01T03:10:36;24.40;99.90
11256;HTU21D;5685;52.384;13.420;2022-08-01T03:13:40;24.40;99.90
11256;HTU21D;5685;52.384;13.420;2022-08-01T03:16:45;24.40;99.90
11256;HTU21D;5685;52.384;13.420;2022-08-01T03:19:50;24.40;99.90
11256;HTU21D;5685;52.384;13.420;2022-08-01T03:22:53;24.40;99.90
11256;HTU21D;5685;52.384;13.420;2022-08-01T03:25:57;24.40;99.90
11256;HTU21D;5685;52.384;13.420;2022-08-01T03:29:04;24.40;99.90
11256;HTU21D;5685;52.384;13.420;2022-08-01T03:32:09;24.40;99.90
11256;HTU21D;5685;52.384;13.420;2022-08-01T03:35:13;24.40;99.90
11256;HTU21D;5685;52.384;13.420;2022-08-01T03:38:19;24.40;99.90
11256;HTU21D;5685;52.384;13.420;2022-08-01T03:41:25;24.40;99.90
11256;HTU21D;5685;52.384;13.420;2022-08-01T03:44:30;24.50;99.90
11256;HTU21D;5685;52.384;13.420;2022-08-01T03:47:35;24.50;99.90
11256;HTU21D;5685;52.384;13.420;2022-08-01T03:50:42;24.50;99.90
11256;HTU21D;5685;52.384;13.420;2022-08-01T03:53:47;24.60;99.90
11256;HTU21D;5685;52.384;13.420;2022-08-01T03:56:52;24.60;99.90
11256;HTU21D;5685;52.384;13.420;2022-08-01T03:59:55;24.60;99.90
11256;HTU21D;5685;52.384;13.420;2022-08-01T04:02:58;24.60;99.90
11256;HTU21D;5685;52.384;13.420;2022-08-01T04:06:05;24.60;99.90
11256;HTU21D;5685;52.384;13.420;2022-08-01T04:09:11;24.60;99.90
11256;HTU21D;5685;52.384;13.420;2022-08-01T04:12:14;24.70;99.90
11256;HTU21D;5685;52.384;13.420;2022-08-01T04:15:16;24.70;99.90
11256;HTU21D;5685;52.384;13.420;2022-08-01T04:18:18;24.70;99.90
11256;HTU21D;5685;52.384;13.420;2022-08-01T04:21:24;24.70;99.90
11256;HTU21D;5685;52.384;13.420;2022-08-01T04:24:30;24.70;99.90
11256;HTU21D;5685;52.384;13.420;2022-08-01T04:27:38;24.70;99.90
11256;HTU21D;5685;52.384;13.420;2022-08-01T04:30:44;24.70;99.90
11256;HTU21D;5685;52.384;13.420;2022-08-01T04:33:49;24.70;99.90
11256;HTU21D;5685;52.384;13.420;2022-08-01T04:36:55;24.70;99.90
11256;HTU21D;5685;52.384;13.420;2022-08-01T04:39:58;24.70;99.90
11256;HTU21D;5685;52.384;13.420;2022-08-01T04:43:02;24.70;99.90
11256;HTU21D;5685;52.384;13.420;2022-08-01T04:46:06;24.80;99.90
11256;HTU21D;5685;52.384;13.420;2022-08-01T04:49:10;24.80;99.90
11256;HTU21D;5685;52.384;13.420;2022-08-01T04:52:14;24.80;99.90
11256;HTU21D;5685;52.384;13.420;2022-08-01T04:55:18;24.80;99.90
11256;HTU21D;5685;52.384;13.420;2022-08-01T04:58:21;24.80;99.90
11256;HTU21D;5685;52.384;13.420;2022-08-01T05:01:23;24.80;99.90
11256;HTU21D;5685;52.384;13.420;2022-08-01T05:04:26;24.80;99.90
11256;HTU21D;5685;52.384;13.420;2022-08-01T05:07:29;24.80;99.90
11256;HTU21D;5685;52.384;13.420;2022-08-01T05:10:32;24.80;99.90
11256;HTU21D;5685;52.384;13.420;2022-08-01T05:13:34;24.80;99.90
11256;HTU21D;5685;52.384;13.420;2022-08-01T05:16:36;24.80;99.90
11256;HTU21D;5685;52.384;13.420;2022-08-01T05:19:39;24.90;99.90
11256;HTU21D;5685;52.384;13.420;2022-08-01T05:22:44;24.80;99.90
11256;HTU21D;5685;52.384;13.420;2022-08-01T05:25:47;24.90;99.90
11256;HTU21D;5685;52.384;13.420;2022-08-01T05:28:50;24.90;99.90
11256;HTU21D;5685;52.384;13.420;2022-08-01T05:31:52;24.90;99.90
11256;HTU21D;5685;52.384;13.420;2022-08-01T05:34:55;24.90;99.90
11256;HTU21D;5685;52.384;13.420;2022-08-01T05:37:59;24.90;99.90
11256;HTU21D;5685;52.384;13.420;2022-08-01T05:41:01;24.90;99.90
11256;HTU21D;5685;52.384;13.420;2022-08-01T05:44:04;24.90;99.90
11256;HTU21D;5685;52.384;13.420;2022-08-01T05:47:07;24.90;99.90
11256;HTU21D;5685;52.384;13.420;2022-08-01T05:50:09;24.90;99.90
11256;HTU21D;5685;52.384;13.420;2022-08-01T05:53:13;24.90;99.90
11256;HTU21D;5685;52.384;13.420;2022-08-01T05:56:15;24.90;99.90
11256;HTU21D;5685;52.384;13.420;2022-08-01T05:59:18;24.90;99.90
11256;HTU21D;5685;52.384;13.420;2022-08-01T06:02:21;24.90;99.90
11256;HTU21D;5685;52.384;13.420;2022-08-01T06:05:23;24.90;99.90
11256;HTU21D;5685;52.384;13.420;2022-08-01T06:08:27;24.90;99.90
11256;HTU21D;5685;52.384;13.420;2022-08-01T06:11:29;24.90;99.90
11256;HTU21D;5685;52.384;13.420;2022-08-01T06:14:32;24.90;99.90
11256;HTU21D;5685;52.384;13.420;2022-08-01T06:17:34;24.90;99.90
11256;HTU21D;5685;52.384;13.420;2022-08-01T06:20:36;24.90;99.90
11256;HTU21D;5685;52.384;13.420;2022-08-01T06:23:40;25.00;99.90
11256;HTU21D;5685;52.384;13.420;2022-08-01T06:26:43;25.00;99.90
11256;HTU21D;5685;52.384;13.420;2022-08-01T06:29:45;24.90;99.90
11256;HTU21D;5685;52.384;13.420;2022-08-01T06:32:48;24.90;99.90
11256;HTU21D;5685;52.384;13.420;2022-08-01T06:35:50;24.90;99.90
11256;HTU21D;5685;52.384;13.420;2022-08-01T06:38:54;24.90;99.90
11256;HTU21D;5685;52.384;13.420;2022-08-01T06:41:56;24.80;99.90
11256;HTU21D;5685;52.384;13.420;2022-08-01T06:44:58;24.80;99.90
11256;HTU21D;5685;52.384;13.420;2022-08-01T06:48:01;24.70;99.90
11256;HTU21D;5685;52.384;13.420;2022-08-01T06:51:03;24.70;99.90
11256;HTU21D;5685;52.384;13.420;2022-08-01T06:54:15;24.60;99.90
11256;HTU21D;5685;52.384;13.420;2022-08-01T06:57:17;24.60;99.90
11256;HTU21D;5685;52.384;13.420;2022-08-01T07:00:21;24.50;99.90
11256;HTU21D;5685;52.384;13.420;2022-08-01T07:03:24;24.50;99.90
11256;HTU21D;5685;52.384;13.420;2022-08-01T07:06:27;24.40;99.90
11256;HTU21D;5685;52.384;13.420;2022-08-01T07:09:31;24.40;99.90
11256;HTU21D;5685;52.384;13.420;2022-08-01T07:12:33;24.40;99.90
11256;HTU21D;5685;52.384;13.420;2022-08-01T07:15:37;24.40;99.90
11256;HTU21D;5685;52.384;13.420;2022-08-01T07:18:39;24.30;99.90
11256;HTU21D;5685;52.384;13.420;2022-08-01T07:21:42;24.40;99.90
11256;HTU21D;5685;52.384;13.420;2022-08-01T07:24:46;24.30;99.90
11256;HTU21D;5685;52.384;13.420;2022-08-01T07:27:48;24.30;99.90
11256;HTU21D;5685;52.384;13.420;2022-08-01T07:30:50;24.30;99.90
11256;HTU21D;5685;52.384;13.420;2022-08-01T07:33:52;24.30;99.90
11256;HTU21D;5685;52.384;13.420;2022-08-01T07:36:54;24.30;99.90
11256;HTU21D;5685;52.384;13.420;2022-08-01T07:39:58;24.30;99.90
11256;HTU21D;5685;52.384;13.420;2022-08-01T07:43:00;24.30;99.90
11256;HTU21D;5685;52.384;13.420;2022-08-01T07:46:03;24.30;99.90
11256;HTU21D;5685;52.384;13.420;2022-08-01T07:49:06;24.30;99.90
11256;HTU21D;5685;52.384;13.420;2022-08-01T07:52:08;24.30;99.90
11256;HTU21D;5685;52.384;13.420;2022-08-01T07:55:12;24.20;99.90
11256;HTU21D;5685;52.384;13.420;2022-08-01T07:58:15;24.20;99.90
11256;HTU21D;5685;52.384;13.420;2022-08-01T08:01:17;24.30;99.90
11256;HTU21D;5685;52.384;13.420;2022-08-01T08:04:20;24.30;99.90
11256;HTU21D;5685;52.384;13.420;2022-08-01T08:07:22;24.30;99.90
11256;HTU21D;5685;52.384;13.420;2022-08-01T08:10:26;24.30;99.90
11256;HTU21D;5685;52.384;13.420;2022-08-01T08:13:28;24.30;99.90
11256;HTU21D;5685;52.384;13.420;2022-08-01T08:16:31;24.30;99.90
11256;HTU21D;5685;52.384;13.420;2022-08-01T08:19:33;24.30;99.90
11256;HTU21D;5685;52.384;13.420;2022-08-01T08:22:37;24.30;99.90
11256;HTU21D;5685;52.384;13.420;2022-08-01T08:25:41;24.20;99.90
11256;HTU21D;5685;52.384;13.420;2022-08-01T08:28:44;24.30;99.90
11256;HTU21D;5685;52.384;13.420;2022-08-01T08:31:46;24.20;99.90
11256;HTU21D;5685;52.384;13.420;2022-08-01T08:34:49;24.20;99.90
11256;HTU21D;5685;52.384;13.420;2022-08-01T08:37:51;24.20;99.90
11256;HTU21D;5685;52.384;13.420;2022-08-01T08:40:56;24.20;99.90
11256;HTU21D;5685;52.384;13.420;2022-08-01T08:43:59;24.20;99.90
11256;HTU21D;5685;52.384;13.420;2022-08-01T08:47:02;24.20;99.90
11256;HTU21D;5685;52.384;13.420;2022-08-01T08:50:07;24.20;99.90
11256;HTU21D;5685;52.384;13.420;2022-08-01T08:53:10;24.10;99.90
11256;HTU21D;5685;52.384;13.420;2022-08-01T08:56:14;24.10;99.90
11256;HTU21D;5685;52.384;13.420;2022-08-01T08:59:16;24.10;99.90
11256;HTU21D;5685;52.384;13.420;2022-08-01T09:02:19;24.00;99.90
11256;HTU21D;5685;52.384;13.420;2022-08-01T09:05:23;24.00;99.90
11256;HTU21D;5685;52.384;13.420;2022-08-01T09:08:26;23.90;99.90
11256;HTU21D;5685;52.384;13.420;2022-08-01T09:11:30;23.90;99.90
11256;HTU21D;5685;52.384;13.420;2022-08-01T09:14:33;23.90;99.90
11256;HTU21D;5685;52.384;13.420;2022-08-01T09:17:46;24.00;99.90
11256;HTU21D;5685;52.384;13.420;2022-08-01T09:20:48;24.00;99.90
11256;HTU21D;5685;52.384;13.420;2022-08-01T09:23:52;24.00;99.90
11256;HTU21D;5685;52.384;13.420;2022-08-01T09:26:57;24.00;99.90
11256;HTU21D;5685;52.384;13.420;2022-08-01T09:30:09;24.00;99.90
11256;HTU21D;5685;52.384;13.420;2022-08-01T09:33:12;23.90;99.90
11256;HTU21D;5685;52.384;13.420;2022-08-01T09:36:15;23.90;99.90
11256;HTU21D;5685;52.384;13.420;2022-08-01T09:39:19;23.90;99.90
11256;HTU21D;5685;52.384;13.420;2022-08-01T09:42:25;24.00;99.90
11256;HTU21D;5685;52.384;13.420;2022-08-01T09:45:32;24.00;99.90
11256;HTU21D;5685;52.384;13.420;2022-08-01T09:48:34;24.00;99.90
11256;HTU21D;5685;52.384;13.420;2022-08-01T09:51:39;24.00;99.90
11256;HTU21D;5685;52.384;13.420;2022-08-01T09:54:44;24.00;99.90
11256;HTU21D;5685;52.384;13.420;2022-08-01T09:57:56;24.10;99.90
11256;HTU21D;5685;52.384;13.420;2022-08-01T10:01:01;24.10;99.90
11256;HTU21D;5685;52.384;13.420;2022-08-01T10:04:06;24.10;99.90
11256;HTU21D;5685;52.384;13.420;2022-08-01T10:07:10;24.10;99.90
11256;HTU21D;5685;52.384;13.420;2022-08-01T10:10:15;24.10;99.90
11256;HTU21D;5685;52.384;13.420;2022-08-01T10:13:19;24.10;99.90
11256;HTU21D;5685;52.384;13.420;2022-08-01T10:16:21;24.10;99.90
11256;HTU21D;5685;52.384;13.420;2022-08-01T10:19:26;24.10;99.90
11256;HTU21D;5685;52.384;13.420;2022-08-01T10:22:31;24.10;99.90
11256;HTU21D;5685;52.384;13.420;2022-08-01T10:25:37;24.10;99.90
11256;HTU21D;5685;52.384;13.420;2022-08-01T10:28:44;24.10;99.90
11256;HTU21D;5685;52.384;13.420;2022-08-01T10:31:50;24.10;99.90
11256;HTU21D;5685;52.384;13.420;2022-08-01T10:34:54;24.10;99.90
11256;HTU21D;5685;52.384;13.420;2022-08-01T10:37:57;24.10;99.90
11256;HTU21D;5685;52.384;13.420;2022-08-01T10:41:02;24.10;99.90
11256;HTU21D;5685;52.384;13.420;2022-08-01T10:44:08;24.10;99.90
11256;HTU21D;5685;52.384;13.420;2022-08-01T10:47:12;24.10;99.90
11256;HTU21D;5685;52.384;13.420;2022-08-01T10:50:31;24.00;99.90
11256;HTU21D;5685;52.384;13.420;2022-08-01T10:53:35;24.00;99.90
11256;HTU21D;5685;52.384;13.420;2022-08-01T10:56:39;24.10;99.90
11256;HTU21D;5685;52.384;13.420;2022-08-01T10:59:51;24.10;99.90
11256;HTU21D;5685;52.384;13.420;2022-08-01T11:02:58;24.10;99.90
11256;HTU21D;5685;52.384;13.420;2022-08-01T11:06:04;24.10;99.90
11256;HTU21D;5685;52.384;13.420;2022-08-01T11:09:20;24.10;99.90
11256;HTU21D;5685;52.384;13.420;2022-08-01T11:12:38;24.10;99.90
11256;HTU21D;5685;52.384;13.420;2022-08-01T11:15:43;24.10;99.90
11256;HTU21D;5685;52.384;13.420;2022-08-01T11:18:50;24.10;99.90
11256;HTU21D;5685;52.384;13.420;2022-08-01T11:21:59;24.10;99.90
11256;HTU21D;5685;52.384;13.420;2022-08-01T11:25:04;24.20;99.90
11256;HTU21D;5685;52.384;13.420;2022-08-01T11:28:18;24.20;99.90
11256;HTU21D;5685;52.384;13.420;2022-08-01T11:31:32;24.20;99.90
11256;HTU21D;5685;52.384;13.420;2022-08-01T11:34:53;24.10;99.90
11256;HTU21D;5685;52.384;13.420;2022-08-01T11:37:56;24.20;99.90
11256;HTU21D;5685;52.384;13.420;2022-08-01T11:41:09;24.20;99.90
11256;HTU21D;5685;52.384;13.420;2022-08-01T11:44:15;24.20;99.90
11256;HTU21D;5685;52.384;13.420;2022-08-01T11:47:46;24.20;99.90
11256;HTU21D;5685;52.384;13.420;2022-08-01T11:50:50;24.20;99.90
11256;HTU21D;5685;52.384;13.420;2022-08-01T11:53:53;24.20;99.90
11256;HTU21D;5685;52.384;13.420;2022-08-01T11:56:57;24.20;99.90
11256;HTU21D;5685;52.384;13.420;2022-08-01T12:00:01;24.20;99.90
11256;HTU21D;5685;52.384;13.420;2022-08-01T12:03:08;24.20;99.90
11256;HTU21D;5685;52.384;13.420;2022-08-01T12:06:10;24.20;99.90
11256;HTU21D;5685;52.384;13.420;2022-08-01T12:09:21;24.20;99.90
11256;HTU21D;5685;52.384;13.420;2022-08-01T12:12:24;24.20;99.90
11256;HTU21D;5685;52.384;13.420;2022-08-01T12:15:30;24.20;99.90
11256;HTU21D;5685;52.384;13.420;2022-08-01T12:18:40;24.10;99.90
11256;HTU21D;5685;52.384;13.420;2022-08-01T12:21:42;24.10;99.90
11256;HTU21D;5685;52.384;13.420;2022-08-01T12:24:44;24.10;99.90
11256;HTU21D;5685;52.384;13.420;2022-08-01T12:27:47;24.10;99.90
11256;HTU21D;5685;52.384;13.420;2022-08-01T12:30:50;24.10;99.90
11256;HTU21D;5685;52.384;13.420;2022-08-01T12:33:54;24.10;99.90
11256;HTU21D;5685;52.384;13.420;2022-08-01T12:36:58;24.10;99.90
11256;HTU21D;5685;52.384;13.420;2022-08-01T12:40:08;24.10;99.90
11256;HTU21D;5685;52.384;13.420;2022-08-01T12:43:16;24.10;99.90
11256;HTU21D;5685;52.384;13.420;2022-08-01T12:46:20;24.10;99.90
11256;HTU21D;5685;52.384;13.420;2022-08-01T12:49:23;24.10;99.90
11256;HTU21D;5685;52.384;13.420;2022-08-01T12:52:26;24.10;99.90
11256;HTU21D;5685;52.384;13.420;2022-08-01T12:55:28;24.10;99.90
11256;HTU21D;5685;52.384;13.420;2022-08-01T12:58:32;24.10;99.90
11256;HTU21D;5685;52.384;13.420;2022-08-01T13:01:34;24.10;99.90
11256;HTU21D;5685;52.384;13.420;2022-08-01T13:04:51;24.10;99.90
11256;HTU21D;5685;52.384;13.420;2022-08-01T13:07:53;24.10;99.90
11256;HTU21D;5685;52.384;13.420;2022-08-01T13:11:01;24.20;99.90
11256;HTU21D;5685;52.384;13.420;2022-08-01T13:14:05;24.20;99.90
11256;HTU21D;5685;52.384;13.420;2022-08-01T13:17:07;24.20;99.90
11256;HTU21D;5685;52.384;13.420;2022-08-01T13:20:21;24.20;99.90
11256;HTU21D;5685;52.384;13.420;2022-08-01T13:23:27;24.20;99.90
11256;HTU21D;5685;52.384;13.420;2022-08-01T13:26:40;24.20;99.90
11256;HTU21D;5685;52.384;13.420;2022-08-01T13:29:43;24.20;99.90
11256;HTU21D;5685;52.384;13.420;2022-08-01T13:32:57;24.20;99.90
11256;HTU21D;5685;52.384;13.420;2022-08-01T13:36:02;24.20;99.90
11256;HTU21D;5685;52.384;13.420;2022-08-01T13:39:05;24.20;99.90
11256;HTU21D;5685;52.384;13.420;2022-08-01T13:42:25;24.20;99.90
11256;HTU21D;5685;52.384;13.420;2022-08-01T13:45:29;24.20;99.90
11256;HTU21D;5685;52.384;13.420;2022-08-01T13:48:32;24.20;99.90
11256;HTU21D;5685;52.384;13.420;2022-08-01T13:51:36;24.20;99.90
11256;HTU21D;5685;52.384;13.420;2022-08-01T13:54:39;24.30;99.90
11256;HTU21D;5685;52.384;13.420;2022-08-01T13:57:41;24.30;99.90
11256;HTU21D;5685;52.384;13.420;2022-08-01T14:00:43;24.30;99.90
11256;HTU21D;5685;52.384;13.420;2022-08-01T14:03:46;24.30;99.90
11256;HTU21D;5685;52.384;13.420;2022-08-01T14:06:50;24.30;99.90
11256;HTU21D;5685;52.384;13.420;2022-08-01T14:09:53;24.30;99.90
11256;HTU21D;5685;52.384;13.420;2022-08-01T14:12:56;24.30;99.90
11256;HTU21D;5685;52.384;13.420;2022-08-01T14:15:59;24.30;99.90
11256;HTU21D;5685;52.384;13.420;2022-08-01T14:19:01;24.30;99.90
11256;HTU21D;5685;52.384;13.420;2022-08-01T14:22:05;24.30;99.90
11256;HTU21D;5685;52.384;13.420;2022-08-01T14:25:08;24.30;99.90
11256;HTU21D;5685;52.384;13.420;2022-08-01T14:28:10;24.30;99.90
11256;HTU21D;5685;52.384;13.420;2022-08-01T14:31:12;24.30;99.90
11256;HTU21D;5685;52.384;13.420;2022-08-01T14:34:15;24.30;99.90
11256;HTU21D;5685;52.384;13.420;2022-08-01T14:37:18;24.30;99.90
11256;HTU21D;5685;52.384;13.420;2022-08-01T14:40:21;24.30;99.90
11256;HTU21D;5685;52.384;13.420;2022-08-01T14:43:23;24.30;99.90
11256;HTU21D;5685;52.384;13.420;2022-08-01T14:46:26;24.40;99.90
11256;HTU21D;5685;52.384;13.420;2022-08-01T14:49:28;24.40;99.90
11256;HTU21D;5685;52.384;13.420;2022-08-01T14:52:32;24.40;99.90
11256;HTU21D;5685;52.384;13.420;2022-08-01T14:55:35;24.40;99.90
11256;HTU21D;5685;52.384;13.420;2022-08-01T14:58:37;24.40;99.90
11256;HTU21D;5685;52.384;13.420;2022-08-01T15:01:39;24.40;99.90
11256;HTU21D;5685;52.384;13.420;2022-08-01T15:04:42;24.40;99.90
11256;HTU21D;5685;52.384;13.420;2022-08-01T15:07:46;24.40;99.90
11256;HTU21D;5685;52.384;13.420;2022-08-01T15:10:48;24.40;99.90
11256;HTU21D;5685;52.384;13.420;2022-08-01T15:13:50;24.40;99.90
11256;HTU21D;5685;52.384;13.420;2022-08-01T15:17:06;24.40;99.90
11256;HTU21D;5685;52.384;13.420;2022-08-01T15:20:09;24.40;99.90
11256;HTU21D;5685;52.384;13.420;2022-08-01T15:23:13;24.40;99.90
11256;HTU21D;5685;52.384;13.420;2022-08-01T15:26:15;24.40;99.90
11256;HTU21D;5685;52.384;13.420;2022-08-01T15:29:17;24.40;99.90
11256;HTU21D;5685;52.384;13.420;2022-08-01T15:32:20;24.50;99.90
11256;HTU21D;5685;52.384;13.420;2022-08-01T15:35:22;24.50;99.90
11256;HTU21D;5685;52.384;13.420;2022-08-01T15:38:26;24.40;99.90
11256;HTU21D;5685;52.384;13.420;2022-08-01T15:41:29;24.50;99.90
11256;HTU21D;5685;52.384;13.420;2022-08-01T15:44:31;24.50;99.90
11256;HTU21D;5685;52.384;13.420;2022-08-01T15:47:33;24.50;99.90
11256;HTU21D;5685;52.384;13.420;2022-08-01T15:50:35;24.50;99.90
11256;HTU21D;5685;52.384;13.420;2022-08-01T15:53:40;24.50;99.90
11256;HTU21D;5685;52.384;13.420;2022-08-01T15:56:43;24.50;99.90
11256;HTU21D;5685;52.384;13.420;2022-08-01T15:59:45;24.50;99.90
11256;HTU21D;5685;52.384;13.420;2022-08-01T16:02:48;24.50;99.90
11256;HTU21D;5685;52.384;13.420;2022-08-01T16:05:50;24.50;99.90
11256;HTU21D;5685;52.384;13.420;2022-08-01T16:08:54;24.50;99.90
11256;HTU21D;5685;52.384;13.420;2022-08-01T16:11:56;24.50;99.90
11256;HTU21D;5685;52.384;13.420;2022-08-01T16:14:58;24.60;99.90
11256;HTU21D;5685;52.384;13.420;2022-08-01T16:18:00;24.60;99.90
11256;HTU21D;5685;52.384;13.420;2022-08-01T16:21:03;24.60;99.90
11256;HTU21D;5685;52.384;13.420;2022-08-01T16:24:08;24.60;99.90
11256;HTU21D;5685;52.384;13.420;2022-08-01T16:27:11;24.60;99.90
11256;HTU21D;5685;52.384;13.420;2022-08-01T16:30:13;24.60;99.90
11256;HTU21D;5685;52.384;13.420;2022-08-01T16:33:15;24.60;99.90
11256;HTU21D;5685;52.384;13.420;2022-08-01T16:36:17;24.60;99.90
11256;HTU21D;5685;52.384;13.420;2022-08-01T16:39:21;24.60;99.90
11256;HTU21D;5685;52.384;13.420;2022-08-01T16:42:23;24.60;99.90
11256;HTU21D;5685;52.384;13.420;2022-08-01T16:45:26;24.60;99.90
11256;HTU21D;5685;52.384;13.420;2022-08-01T16:48:28;24.60;99.90
11256;HTU21D;5685;52.384;13.420;2022-08-01T16:51:30;24.60;99.90
11256;HTU21D;5685;52.384;13.420;2022-08-01T16:54:35;24.60;99.90
11256;HTU21D;5685;52.384;13.420;2022-08-01T16:57:37;24.60;99.90
11256;HTU21D;5685;52.384;13.420;2022-08-01T17:00:39;24.60;99.90
11256;HTU21D;5685;52.384;13.420;2022-08-01T17:03:43;24.60;99.90
11256;HTU21D;5685;52.384;13.420;2022-08-01T17:06:45;24.60;99.90
11256;HTU21D;5685;52.384;13.420;2022-08-01T17:09:50;24.60;99.90
11256;HTU21D;5685;52.384;13.420;2022-08-01T17:12:52;24.60;99.90
11256;HTU21D;5685;52.384;13.420;2022-08-01T17:15:55;24.70;99.90
11256;HTU21D;5685;52.384;13.420;2022-08-01T17:18:57;24.70;99.90
11256;HTU21D;5685;52.384;13.420;2022-08-01T17:21:59;24.70;99.90
11256;HTU21D;5685;52.384;13.420;2022-08-01T17:25:04;24.60;99.90
11256;HTU21D;5685;52.384;13.420;2022-08-01T17:28:06;24.70;99.90
11256;HTU21D;5685;52.384;13.420;2022-08-01T17:31:09;24.70;99.90
11256;HTU21D;5685;52.384;13.420;2022-08-01T17:34:12;24.70;99.90
11256;HTU21D;5685;52.384;13.420;2022-08-01T17:37:14;24.70;99.90
11256;HTU21D;5685;52.384;13.420;2022-08-01T17:40:17;24.70;99.90
11256;HTU21D;5685;52.384;13.420;2022-08-01T17:43:19;24.70;99.90
11256;HTU21D;5685;52.384;13.420;2022-08-01T17:46:21;24.70;99.90
11256;HTU21D;5685;52.384;13.420;2022-08-01T17:49:24;24.70;99.90
11256;HTU21D;5685;52.384;13.420;2022-08-01T17:52:26;24.70;99.90
11256;HTU21D;5685;52.384;13.420;2022-08-01T17:55:30;24.70;99.90
11256;HTU21D;5685;52.384;13.420;2022-08-01T17:58:33;24.70;99.90
11256;HTU21D;5685;52.384;13.420;2022-08-01T18:01:35;24.70;99.90
11256;HTU21D;5685;52.384;13.420;2022-08-01T18:04:37;24.70;99.90
11256;HTU21D;5685;52.384;13.420;2022-08-01T18:07:40;24.70;99.90
11256;HTU21D;5685;52.384;13.420;2022-08-01T18:10:43;24.70;99.90
11256;HTU21D;5685;52.384;13.420;2022-08-01T18:13:45;24.70;99.90
11256;HTU21D;5685;52.384;13.420;2022-08-01T18:16:47;24.70;99.90
11256;HTU21D;5685;52.384;13.420;2022-08-01T18:19:52;24.70;99.90
11256;HTU21D;5685;52.384;13.420;2022-08-01T18:22:54;24.70;99.90
11256;HTU21D;5685;52.384;13.420;2022-08-01T18:25:58;24.70;99.90
11256;HTU21D;5685;52.384;13.420;2022-08-01T18:29:01;24.70;99.90
11256;HTU21D;5685;52.384;13.420;2022-08-01T18:32:04;24.70;99.90
11256;HTU21D;5685;52.384;13.420;2022-08-01T18:35:07;24.70;99.90
11256;HTU21D;5685;52.384;13.420;2022-08-01T18:38:09;24.70;99.90
11256;HTU21D;5685;52.384;13.420;2022-08-01T18:41:12;24.70;99.90
11256;HTU21D;5685;52.384;13.420;2022-08-01T18:44:14;24.70;99.90
11256;HTU21D;5685;52.384;13.420;2022-08-01T18:50:18;24.80;99.90
11256;HTU21D;5685;52.384;13.420;2022-08-01T18:53:20;24.80;99.90
11256;HTU21D;5685;52.384;13.420;2022-08-01T18:56:24;24.80;99.90
11256;HTU21D;5685;52.384;13.420;2022-08-01T18:59:26;24.80;99.90
11256;HTU21D;5685;52.384;13.420;2022-08-01T19:02:28;24.80;99.90
11256;HTU21D;5685;52.384;13.420;2022-08-01T19:05:30;24.80;99.90
11256;HTU21D;5685;52.384;13.420;2022-08-01T19:08:33;24.80;99.90